Kissimmee Gateway Airport
KISM : rendu visible

Aérodrome :











RETROUVEZ-NOUS SUR...

 
LOGIN :

S'inscrire | Disclaimer

   EN    FR    IT 

 









Légende :    VFR   VFR Marginal   IFR   IFR Intensif   IFR Très Intensif
Visi : 
Plafond : 
>= 8 km
>= 3000ft
5 à 8 km
1000 à 3000 ft
1500m à 5 km
500 à 1000 ft
800 à 1500m
200 à 500 ft
< 800m
< 200 ft
Symboles :   Orages  Brouillard  Fortes neiges  Fortes précipitations  Vent > 20 kt






- Altitude de l'aérodrome : 82 ft


KISM - Kissimmee Gateway

DERNIER METAR :
  • 101008Z AUTO 29007KT 9SM OVC011 23/22 A2981 RMK AO2 PNO $

METARs EXPIRÉS :
  • 100956Z AUTO 29008KT 9SM OVC009 23/22 A2980 RMK AO2 CIG 009V012 SLP090 T02330222 PNO $
  • 100856Z AUTO 29009KT 9SM OVC007 23/22 A2980 RMK AO2 CIG 006V011 SLP091 6//// T02330222 55006 PNO $
  • 100756Z AUTO 29010KT 7SM BKN007 23/22 A2980 RMK AO2 SLP090 T02280222 PNO $
  • 100741Z AUTO 27006KT 6SM BR SCT007 22/22 A2979 RMK AO2 PNO $

TAF KISM
Valide du 10 à 06h jusqu'au 11 à 06h UTC


100520Z 1006/1106 26012KT P6SM SCT030 SCT250
FM100800 25009KT P6SM SCT008 BKN012
FM101400 33012KT P6SM FEW015 BKN025
FM101600 35013G19KT P6SM VCSH SCT030 BKN040
FM102300 36009KT P6SM SCT050 SCT250



MET'MAP, la Météo Aéronautique d'un coup d'oeil ! - Copyright ORBIFLY Décembre 2007 - Disclaimer

ORBIFLY MET'MAP TEAM :

Programmation & Développement : Alexandra Zaïnal
Sur une idée originale de : Baudouin d'Aumeries
Assistance à la programmation : Marc-Olivier Méhu
Soutien technique & logistique : Manuel Goepfert

Contact : metmap@orbifly.com




SOURCES & CREDITS :

   NOAA       Earth
Advisory